Avery, Oklahoma
Current Conditions -  °F | °C
As of 5:55 AM on Friday 19 Dec 2014 (Local Time) from KCUH Reporting Station
Haze Haze  
Wind Chill: 31°   Ceiling: 400
Heat Index: 36°   Visibility: 3mi
Dew Point: 36°   Wind: 6mph
Humidity: 100%   Direction: 10°N
Pressure: 30.22"   Gusts: NA
Location:  35.9968°N, 96.7376°W
Report Text: KCUH 191155Z AUTO 01005KT 3SM BR OVC004 02/02 A3022 RMK AO2
Loading
Personal Weather Stations






























Interactive Weather Map New forecast layout! Learn more

10-Day Weather Forecast

Advertisements
Track Severe Weather on mobile